JAL585 RJCH-RJTT
Flight info
| Callsign | JAL585 |
|---|---|
| Flight time | 1h 7m |
| Altitude | 36000 |
| Route | UWE Y32 RUBIS Y10 GODIN |
| Aircraft | E190/M-SDE3GILORVW/S |
Departure
| Time | 2026-05-07 18:45 |
|---|---|
| Airport | Hakodate Airport (RJCH) |
Arrival
| Time | 2026-05-07 19:53 |
|---|---|
| Airport | Tokyo Haneda International Airport (RJTT) |
| Time | Latitude | Longitude | Altitude | Speed | Heading |
|---|---|---|---|---|---|
| 2026-05-07 18:00 | 41.77524 | 140.81389 | 113 ft | 0 kts | 17° |
| 2026-05-07 18:38 | 41.77513 | 140.81384 | 113 ft | 2 kts | 17° |
| 2026-05-07 18:39 | 41.77499 | 140.81380 | 113 ft | 2 kts | 17° |
| 2026-05-07 18:39 | 41.77484 | 140.81374 | 113 ft | 2 kts | 17° |
| 2026-05-07 18:39 | 41.77470 | 140.81367 | 112 ft | 2 kts | 17° |
| 2026-05-07 18:39 | 41.77456 | 140.81361 | 112 ft | 1 kts | 17° |
| 2026-05-07 18:40 | 41.77447 | 140.81358 | 111 ft | 2 kts | 10° |
| 2026-05-07 18:40 | 41.77432 | 140.81358 | 110 ft | 2 kts | 352° |
| 2026-05-07 18:40 | 41.77417 | 140.81363 | 110 ft | 2 kts | 337° |
| 2026-05-07 18:40 | 41.77404 | 140.81372 | 110 ft | 2 kts | 322° |
| 2026-05-07 18:41 | 41.77393 | 140.81386 | 110 ft | 2 kts | 307° |
| 2026-05-07 18:41 | 41.77385 | 140.81403 | 110 ft | 1 kts | 292° |
| 2026-05-07 18:41 | 41.77383 | 140.81412 | 111 ft | 1 kts | 286° |
| 2026-05-07 18:41 | 41.77382 | 140.81415 | 111 ft | 0 kts | 288° |
| 2026-05-07 18:43 | 41.77384 | 140.81409 | 110 ft | 3 kts | 288° |
| 2026-05-07 18:43 | 41.77408 | 140.81319 | 108 ft | 18 kts | 288° |
| 2026-05-07 18:43 | 41.77457 | 140.81116 | 105 ft | 24 kts | 290° |
| 2026-05-07 18:43 | 41.77507 | 140.80896 | 103 ft | 25 kts | 290° |
| 2026-05-07 18:44 | 41.77554 | 140.80681 | 101 ft | 16 kts | 275° |
| 2026-05-07 18:44 | 41.77513 | 140.80543 | 97 ft | 18 kts | 210° |
| 2026-05-07 18:44 | 41.77422 | 140.80534 | 95 ft | 9 kts | 110° |
| 2026-05-07 18:44 | 41.77409 | 140.80592 | 96 ft | 13 kts | 107° |
| 2026-05-07 18:45 | 41.77288 | 140.81088 | 101 ft | 94 kts | 108° |
| 2026-05-07 18:45 | 41.77016 | 140.82193 | 182 ft | 146 kts | 108° |
| 2026-05-07 18:45 | 41.76667 | 140.83540 | 728 ft | 161 kts | 113° |
| 2026-05-07 18:45 | 41.75894 | 140.84573 | 1449 ft | 166 kts | 158° |
| 2026-05-07 18:46 | 41.74684 | 140.84659 | 1912 ft | 194 kts | 201° |
| 2026-05-07 18:46 | 41.73658 | 140.83469 | 2579 ft | 207 kts | 240° |
| 2026-05-07 18:46 | 41.72753 | 140.81963 | 3488 ft | 219 kts | 214° |
| 2026-05-07 18:46 | 41.71224 | 140.81332 | 4163 ft | 247 kts | 194° |
| 2026-05-07 18:47 | 41.69717 | 140.80276 | 4955 ft | 257 kts | 230° |
| 2026-05-07 18:47 | 41.68804 | 140.78252 | 5996 ft | 261 kts | 240° |
| 2026-05-07 18:47 | 41.67718 | 140.76325 | 7188 ft | 262 kts | 230° |
| 2026-05-07 18:47 | 41.66484 | 140.74599 | 8337 ft | 261 kts | 226° |
| 2026-05-07 18:48 | 41.65173 | 140.72972 | 9400 ft | 262 kts | 224° |
| 2026-05-07 18:48 | 41.63795 | 140.71362 | 10404 ft | 265 kts | 223° |
| 2026-05-07 18:48 | 41.62394 | 140.69775 | 11279 ft | 270 kts | 223° |
| 2026-05-07 18:48 | 41.60948 | 140.68162 | 12022 ft | 280 kts | 222° |
| 2026-05-07 18:49 | 41.59423 | 140.66478 | 12752 ft | 289 kts | 222° |
| 2026-05-07 18:49 | 41.57879 | 140.64780 | 13562 ft | 294 kts | 222° |
| 2026-05-07 18:49 | 41.56295 | 140.63040 | 14469 ft | 296 kts | 222° |
| 2026-05-07 18:49 | 41.54729 | 140.61324 | 15347 ft | 297 kts | 222° |
| 2026-05-07 18:50 | 41.53135 | 140.59578 | 16234 ft | 297 kts | 222° |
| 2026-05-07 18:50 | 41.51556 | 140.57849 | 17033 ft | 299 kts | 223° |
| 2026-05-07 18:50 | 41.49933 | 140.56074 | 17791 ft | 302 kts | 222° |
| 2026-05-07 18:50 | 41.48314 | 140.54305 | 18533 ft | 305 kts | 223° |
| 2026-05-07 18:51 | 41.46672 | 140.52512 | 19239 ft | 308 kts | 223° |
| 2026-05-07 18:51 | 41.45027 | 140.50716 | 19956 ft | 309 kts | 223° |
| 2026-05-07 18:51 | 41.43386 | 140.48924 | 20623 ft | 311 kts | 223° |
| 2026-05-07 18:51 | 41.41714 | 140.47102 | 21296 ft | 312 kts | 223° |
| 2026-05-07 18:52 | 41.40022 | 140.45259 | 21895 ft | 315 kts | 223° |
| 2026-05-07 18:52 | 41.38325 | 140.43413 | 22484 ft | 317 kts | 223° |
| 2026-05-07 18:52 | 41.36608 | 140.41547 | 23080 ft | 319 kts | 223° |
| 2026-05-07 18:52 | 41.34900 | 140.39690 | 23666 ft | 321 kts | 223° |
| 2026-05-07 18:53 | 41.33168 | 140.37808 | 24278 ft | 322 kts | 223° |
| 2026-05-07 18:53 | 41.31448 | 140.35941 | 24850 ft | 324 kts | 223° |
| 2026-05-07 18:53 | 41.29717 | 140.34064 | 25431 ft | 325 kts | 222° |
| 2026-05-07 18:53 | 41.27965 | 140.32164 | 25957 ft | 328 kts | 223° |
| 2026-05-07 18:54 | 41.26193 | 140.30244 | 26519 ft | 330 kts | 223° |
| 2026-05-07 18:54 | 41.24398 | 140.28302 | 27022 ft | 333 kts | 223° |
| 2026-05-07 18:54 | 41.22614 | 140.26372 | 27562 ft | 335 kts | 223° |
| 2026-05-07 18:54 | 41.20803 | 140.24416 | 28088 ft | 337 kts | 223° |
| 2026-05-07 18:55 | 41.18988 | 140.22455 | 28590 ft | 338 kts | 223° |
| 2026-05-07 18:55 | 41.17153 | 140.20474 | 29051 ft | 341 kts | 223° |
| 2026-05-07 18:55 | 41.15252 | 140.18610 | 29565 ft | 346 kts | 216° |
| 2026-05-07 18:55 | 41.13049 | 140.17250 | 30008 ft | 357 kts | 206° |
| 2026-05-07 18:56 | 41.10600 | 140.16454 | 30392 ft | 371 kts | 197° |
| 2026-05-07 18:56 | 41.07980 | 140.16315 | 30839 ft | 386 kts | 187° |
| 2026-05-07 18:56 | 41.05294 | 140.16527 | 31228 ft | 388 kts | 187° |
| 2026-05-07 18:56 | 41.02584 | 140.16635 | 31655 ft | 389 kts | 188° |
| 2026-05-07 18:57 | 40.99902 | 140.16699 | 32210 ft | 388 kts | 189° |
| 2026-05-07 18:57 | 40.97189 | 140.16748 | 32799 ft | 386 kts | 189° |
| 2026-05-07 18:57 | 40.94524 | 140.16791 | 33398 ft | 383 kts | 189° |
| 2026-05-07 18:57 | 40.91857 | 140.16829 | 33968 ft | 382 kts | 189° |
| 2026-05-07 18:58 | 40.89217 | 140.16869 | 34519 ft | 381 kts | 189° |
| 2026-05-07 18:58 | 40.86560 | 140.16907 | 35104 ft | 380 kts | 189° |
| 2026-05-07 18:58 | 40.83953 | 140.16945 | 35691 ft | 377 kts | 189° |
| 2026-05-07 18:59 | 40.78664 | 140.17018 | 35813 ft | 388 kts | 189° |
| 2026-05-07 18:59 | 40.73154 | 140.17097 | 35820 ft | 407 kts | 188° |
| 2026-05-07 19:00 | 40.67365 | 140.17183 | 35813 ft | 424 kts | 188° |
| 2026-05-07 19:00 | 40.61467 | 140.17270 | 35812 ft | 425 kts | 188° |
| 2026-05-07 19:01 | 40.55545 | 140.17357 | 35819 ft | 424 kts | 188° |
| 2026-05-07 19:01 | 40.49655 | 140.17442 | 35825 ft | 423 kts | 188° |
| 2026-05-07 19:02 | 40.43765 | 140.17526 | 35820 ft | 423 kts | 188° |
| 2026-05-07 19:02 | 40.37877 | 140.17612 | 35817 ft | 423 kts | 188° |
| 2026-05-07 19:03 | 40.31981 | 140.17696 | 35818 ft | 427 kts | 188° |
| 2026-05-07 19:03 | 40.26093 | 140.17780 | 35817 ft | 427 kts | 188° |
| 2026-05-07 19:04 | 40.20119 | 140.17865 | 35818 ft | 426 kts | 188° |
| 2026-05-07 19:04 | 40.14204 | 140.17949 | 35818 ft | 428 kts | 188° |
| 2026-05-07 19:05 | 40.08273 | 140.18034 | 35823 ft | 427 kts | 187° |
| 2026-05-07 19:05 | 40.02285 | 140.18120 | 35820 ft | 431 kts | 188° |
| 2026-05-07 19:06 | 39.96306 | 140.18205 | 35821 ft | 431 kts | 187° |
| 2026-05-07 19:06 | 39.87381 | 140.18330 | 35835 ft | 432 kts | 187° |
| 2026-05-07 19:07 | 39.81350 | 140.18416 | 35833 ft | 432 kts | 187° |
| 2026-05-07 19:07 | 39.75380 | 140.18501 | 35830 ft | 429 kts | 187° |
| 2026-05-07 19:08 | 39.69406 | 140.18585 | 35834 ft | 431 kts | 187° |
| 2026-05-07 19:08 | 39.63405 | 140.18669 | 35830 ft | 430 kts | 187° |
| 2026-05-07 19:09 | 39.57339 | 140.19307 | 35838 ft | 441 kts | 181° |
| 2026-05-07 19:09 | 39.51273 | 140.20167 | 35840 ft | 440 kts | 181° |
| 2026-05-07 19:10 | 39.45202 | 140.21025 | 35840 ft | 437 kts | 181° |
| 2026-05-07 19:10 | 39.39142 | 140.21880 | 35842 ft | 440 kts | 181° |
| 2026-05-07 19:11 | 39.33083 | 140.22731 | 35833 ft | 440 kts | 181° |
| 2026-05-07 19:11 | 39.26984 | 140.23587 | 35836 ft | 442 kts | 181° |
| 2026-05-07 19:12 | 39.20887 | 140.24443 | 35830 ft | 443 kts | 181° |
| 2026-05-07 19:12 | 39.14784 | 140.25297 | 35831 ft | 443 kts | 181° |
| 2026-05-07 19:13 | 39.08654 | 140.26154 | 35837 ft | 445 kts | 181° |
| 2026-05-07 19:13 | 39.02543 | 140.27006 | 35837 ft | 443 kts | 181° |
| 2026-05-07 19:14 | 38.96448 | 140.27853 | 35840 ft | 444 kts | 181° |
| 2026-05-07 19:14 | 38.90280 | 140.28709 | 35832 ft | 442 kts | 181° |
| 2026-05-07 19:15 | 38.84187 | 140.29553 | 35837 ft | 442 kts | 181° |
| 2026-05-07 19:15 | 38.78041 | 140.30403 | 35834 ft | 445 kts | 181° |
| 2026-05-07 19:16 | 38.71913 | 140.31250 | 35830 ft | 444 kts | 181° |
| 2026-05-07 19:16 | 38.65780 | 140.32097 | 35836 ft | 444 kts | 180° |
| 2026-05-07 19:17 | 38.59617 | 140.32945 | 35843 ft | 445 kts | 180° |
| 2026-05-07 19:17 | 38.53453 | 140.33794 | 35852 ft | 447 kts | 180° |
| 2026-05-07 19:18 | 38.47282 | 140.34641 | 35860 ft | 448 kts | 180° |
| 2026-05-07 19:18 | 38.41080 | 140.35490 | 35862 ft | 450 kts | 180° |
| 2026-05-07 19:19 | 38.34959 | 140.37480 | 35866 ft | 460 kts | 168° |
| 2026-05-07 19:19 | 38.28886 | 140.40141 | 35860 ft | 462 kts | 168° |
| 2026-05-07 19:20 | 38.22855 | 140.42767 | 35864 ft | 460 kts | 168° |
| 2026-05-07 19:20 | 38.16757 | 140.45416 | 35866 ft | 462 kts | 167° |
| 2026-05-07 19:21 | 38.10695 | 140.48045 | 35855 ft | 463 kts | 167° |
| 2026-05-07 19:21 | 38.04619 | 140.50676 | 35850 ft | 462 kts | 167° |
| 2026-05-07 19:22 | 37.98551 | 140.53299 | 35836 ft | 462 kts | 167° |
| 2026-05-07 19:22 | 37.92456 | 140.55927 | 35833 ft | 464 kts | 167° |
| 2026-05-07 19:23 | 37.86353 | 140.58556 | 35837 ft | 464 kts | 167° |
| 2026-05-07 19:23 | 37.80279 | 140.61166 | 35838 ft | 464 kts | 167° |
| 2026-05-07 19:24 | 37.74063 | 140.62578 | 35845 ft | 448 kts | 184° |
| 2026-05-07 19:24 | 37.68010 | 140.61626 | 35849 ft | 436 kts | 198° |
| 2026-05-07 19:25 | 37.62113 | 140.59907 | 35830 ft | 427 kts | 197° |
| 2026-05-07 19:25 | 37.59285 | 140.59096 | 35820 ft | 404 kts | 198° |
| 2026-05-07 19:25 | 37.56570 | 140.58315 | 35829 ft | 394 kts | 198° |
| 2026-05-07 19:26 | 37.51169 | 140.56760 | 35538 ft | 406 kts | 198° |
| 2026-05-07 19:26 | 37.48397 | 140.55966 | 35097 ft | 406 kts | 198° |
| 2026-05-07 19:26 | 37.45647 | 140.55177 | 34651 ft | 407 kts | 198° |
| 2026-05-07 19:27 | 37.42884 | 140.54387 | 34201 ft | 407 kts | 198° |
| 2026-05-07 19:27 | 37.40151 | 140.53606 | 33756 ft | 409 kts | 197° |
| 2026-05-07 19:27 | 37.37380 | 140.52814 | 33314 ft | 409 kts | 197° |
| 2026-05-07 19:27 | 37.34580 | 140.52013 | 32872 ft | 413 kts | 197° |
| 2026-05-07 19:28 | 37.31766 | 140.51210 | 32413 ft | 414 kts | 197° |
| 2026-05-07 19:28 | 37.28989 | 140.50418 | 31961 ft | 414 kts | 197° |
| 2026-05-07 19:28 | 37.26162 | 140.49612 | 31499 ft | 416 kts | 197° |
| 2026-05-07 19:28 | 37.23360 | 140.48814 | 31043 ft | 418 kts | 197° |
| 2026-05-07 19:29 | 37.20494 | 140.48000 | 30575 ft | 418 kts | 197° |
| 2026-05-07 19:29 | 37.17696 | 140.47205 | 30117 ft | 416 kts | 197° |
| 2026-05-07 19:29 | 37.14895 | 140.46410 | 29660 ft | 412 kts | 197° |
| 2026-05-07 19:29 | 37.12088 | 140.45613 | 29208 ft | 408 kts | 197° |
| 2026-05-07 19:30 | 37.09337 | 140.44833 | 28764 ft | 406 kts | 197° |
| 2026-05-07 19:30 | 37.06616 | 140.44063 | 28319 ft | 402 kts | 197° |
| 2026-05-07 19:30 | 37.03898 | 140.43292 | 27874 ft | 400 kts | 197° |
| 2026-05-07 19:30 | 37.01166 | 140.42520 | 27430 ft | 397 kts | 197° |
| 2026-05-07 19:31 | 36.98520 | 140.41771 | 26999 ft | 394 kts | 197° |
| 2026-05-07 19:31 | 36.95850 | 140.41017 | 26561 ft | 391 kts | 197° |
| 2026-05-07 19:31 | 36.93183 | 140.40263 | 26124 ft | 390 kts | 197° |
| 2026-05-07 19:31 | 36.90572 | 140.39528 | 25698 ft | 387 kts | 197° |
| 2026-05-07 19:32 | 36.87972 | 140.38796 | 25276 ft | 383 kts | 197° |
| 2026-05-07 19:32 | 36.85376 | 140.38065 | 24852 ft | 382 kts | 197° |
| 2026-05-07 19:32 | 36.82795 | 140.37338 | 24428 ft | 380 kts | 197° |
| 2026-05-07 19:32 | 36.80215 | 140.36612 | 24011 ft | 376 kts | 197° |
| 2026-05-07 19:33 | 36.77690 | 140.35902 | 23597 ft | 375 kts | 197° |
| 2026-05-07 19:33 | 36.75137 | 140.35185 | 23179 ft | 371 kts | 198° |
| 2026-05-07 19:33 | 36.72609 | 140.34613 | 22772 ft | 371 kts | 194° |
| 2026-05-07 19:33 | 36.70068 | 140.34106 | 22362 ft | 368 kts | 194° |
| 2026-05-07 19:34 | 36.67564 | 140.33603 | 21957 ft | 367 kts | 194° |
| 2026-05-07 19:34 | 36.65073 | 140.33102 | 21554 ft | 364 kts | 194° |
| 2026-05-07 19:34 | 36.62565 | 140.32599 | 21149 ft | 362 kts | 194° |
| 2026-05-07 19:34 | 36.60093 | 140.32103 | 20748 ft | 360 kts | 193° |
| 2026-05-07 19:35 | 36.57636 | 140.31610 | 20350 ft | 358 kts | 193° |
| 2026-05-07 19:35 | 36.55197 | 140.31122 | 19954 ft | 354 kts | 194° |
| 2026-05-07 19:35 | 36.52781 | 140.30637 | 19563 ft | 353 kts | 193° |
| 2026-05-07 19:35 | 36.50349 | 140.30150 | 19169 ft | 352 kts | 193° |
| 2026-05-07 19:36 | 36.47963 | 140.29672 | 18782 ft | 349 kts | 193° |
| 2026-05-07 19:36 | 36.45567 | 140.29193 | 18396 ft | 346 kts | 193° |
| 2026-05-07 19:36 | 36.43222 | 140.28603 | 18001 ft | 340 kts | 204° |
| 2026-05-07 19:36 | 36.41319 | 140.26996 | 17688 ft | 332 kts | 229° |
| 2026-05-07 19:37 | 36.40170 | 140.24519 | 17177 ft | 333 kts | 250° |
| 2026-05-07 19:37 | 36.39527 | 140.21817 | 16788 ft | 331 kts | 252° |
| 2026-05-07 19:37 | 36.38945 | 140.19070 | 16411 ft | 328 kts | 253° |
| 2026-05-07 19:37 | 36.38383 | 140.16298 | 16041 ft | 328 kts | 254° |
| 2026-05-07 19:38 | 36.37843 | 140.13579 | 15679 ft | 325 kts | 254° |
| 2026-05-07 19:38 | 36.37312 | 140.10890 | 15328 ft | 322 kts | 254° |
| 2026-05-07 19:38 | 36.36781 | 140.08200 | 14975 ft | 322 kts | 254° |
| 2026-05-07 19:38 | 36.36248 | 140.05493 | 14614 ft | 321 kts | 254° |
| 2026-05-07 19:39 | 36.35691 | 140.02826 | 14252 ft | 319 kts | 248° |
| 2026-05-07 19:39 | 36.34446 | 140.00597 | 13932 ft | 318 kts | 221° |
| 2026-05-07 19:39 | 36.32497 | 139.99327 | 13565 ft | 324 kts | 201° |
| 2026-05-07 19:39 | 36.30339 | 139.98541 | 13193 ft | 322 kts | 199° |
| 2026-05-07 19:40 | 36.28186 | 139.97795 | 12830 ft | 320 kts | 199° |
| 2026-05-07 19:40 | 36.26035 | 139.97061 | 12472 ft | 319 kts | 198° |
| 2026-05-07 19:40 | 36.23909 | 139.96344 | 12122 ft | 318 kts | 199° |
| 2026-05-07 19:40 | 36.21769 | 139.95624 | 11877 ft | 316 kts | 198° |
| 2026-05-07 19:41 | 36.19681 | 139.94922 | 11570 ft | 312 kts | 198° |
| 2026-05-07 19:41 | 36.17603 | 139.94225 | 11229 ft | 306 kts | 198° |
| 2026-05-07 19:41 | 36.15581 | 139.93545 | 10888 ft | 299 kts | 198° |
| 2026-05-07 19:41 | 36.13589 | 139.92879 | 10563 ft | 291 kts | 198° |
| 2026-05-07 19:42 | 36.11651 | 139.92229 | 10245 ft | 284 kts | 198° |
| 2026-05-07 19:42 | 36.09787 | 139.91605 | 9933 ft | 277 kts | 199° |
| 2026-05-07 19:42 | 36.07927 | 139.90982 | 9623 ft | 272 kts | 199° |
| 2026-05-07 19:42 | 36.06123 | 139.90381 | 9334 ft | 271 kts | 197° |
| 2026-05-07 19:43 | 36.04213 | 139.90414 | 9038 ft | 281 kts | 168° |
| 2026-05-07 19:43 | 36.02344 | 139.91194 | 8718 ft | 284 kts | 165° |
| 2026-05-07 19:43 | 36.00475 | 139.92012 | 8391 ft | 283 kts | 164° |
| 2026-05-07 19:43 | 35.98624 | 139.92825 | 8078 ft | 282 kts | 164° |
| 2026-05-07 19:44 | 35.96795 | 139.93628 | 7768 ft | 281 kts | 164° |
| 2026-05-07 19:44 | 35.94941 | 139.94441 | 7450 ft | 279 kts | 164° |
| 2026-05-07 19:44 | 35.93130 | 139.95236 | 7141 ft | 278 kts | 163° |
| 2026-05-07 19:44 | 35.91317 | 139.96031 | 6848 ft | 277 kts | 163° |
| 2026-05-07 19:45 | 35.89483 | 139.96837 | 6535 ft | 276 kts | 163° |
| 2026-05-07 19:45 | 35.87684 | 139.97626 | 6236 ft | 274 kts | 163° |
| 2026-05-07 19:45 | 35.85865 | 139.98108 | 5934 ft | 269 kts | 184° |
| 2026-05-07 19:45 | 35.83988 | 139.97945 | 5648 ft | 269 kts | 187° |
| 2026-05-07 19:46 | 35.82110 | 139.97743 | 5339 ft | 269 kts | 187° |
| 2026-05-07 19:46 | 35.80243 | 139.97539 | 5050 ft | 269 kts | 188° |
| 2026-05-07 19:46 | 35.78531 | 139.96774 | 4836 ft | 263 kts | 219° |
| 2026-05-07 19:46 | 35.77115 | 139.95360 | 4649 ft | 261 kts | 220° |
| 2026-05-07 19:47 | 35.75665 | 139.94005 | 4432 ft | 264 kts | 218° |
| 2026-05-07 19:47 | 35.74175 | 139.92679 | 4126 ft | 258 kts | 217° |
| 2026-05-07 19:47 | 35.72739 | 139.91428 | 3805 ft | 253 kts | 217° |
| 2026-05-07 19:47 | 35.71317 | 139.90199 | 3517 ft | 245 kts | 216° |
| 2026-05-07 19:48 | 35.69972 | 139.89043 | 3202 ft | 227 kts | 216° |
| 2026-05-07 19:48 | 35.68736 | 139.87982 | 2926 ft | 201 kts | 217° |
| 2026-05-07 19:48 | 35.67671 | 139.87068 | 2670 ft | 176 kts | 218° |
| 2026-05-07 19:48 | 35.66723 | 139.86256 | 2423 ft | 154 kts | 220° |
| 2026-05-07 19:49 | 35.65910 | 139.85558 | 2180 ft | 135 kts | 220° |
| 2026-05-07 19:49 | 35.65180 | 139.84930 | 1972 ft | 122 kts | 220° |
| 2026-05-07 19:49 | 35.64486 | 139.84334 | 1827 ft | 121 kts | 220° |
| 2026-05-07 19:49 | 35.63794 | 139.83739 | 1692 ft | 122 kts | 220° |
| 2026-05-07 19:50 | 35.63086 | 139.83130 | 1537 ft | 126 kts | 218° |
| 2026-05-07 19:50 | 35.62362 | 139.82509 | 1373 ft | 127 kts | 216° |
| 2026-05-07 19:50 | 35.61630 | 139.81883 | 1202 ft | 127 kts | 215° |
| 2026-05-07 19:50 | 35.60899 | 139.81256 | 1030 ft | 128 kts | 214° |
| 2026-05-07 19:51 | 35.60181 | 139.80643 | 863 ft | 125 kts | 215° |
| 2026-05-07 19:51 | 35.59475 | 139.80039 | 697 ft | 121 kts | 215° |
| 2026-05-07 19:51 | 35.58783 | 139.79445 | 537 ft | 119 kts | 215° |
| 2026-05-07 19:51 | 35.58117 | 139.78876 | 383 ft | 117 kts | 214° |
| 2026-05-07 19:52 | 35.57445 | 139.78301 | 228 ft | 117 kts | 213° |
| 2026-05-07 19:52 | 35.56782 | 139.77733 | 79 ft | 115 kts | 212° |
| 2026-05-07 19:52 | 35.56131 | 139.77206 | 19 ft | 100 kts | 216° |
| 2026-05-07 19:52 | 35.55714 | 139.76831 | 21 ft | 52 kts | 214° |
| 2026-05-07 19:53 | 35.55490 | 139.76657 | 21 ft | 20 kts | 198° |
| 2026-05-07 19:53 | 35.55358 | 139.76623 | 24 ft | 18 kts | 191° |
| 2026-05-07 19:53 | 35.55236 | 139.76599 | 24 ft | 17 kts | 184° |
| 2026-05-07 19:53 | 35.55135 | 139.76649 | 24 ft | 14 kts | 101° |
| 2026-05-07 19:54 | 35.55173 | 139.76756 | 24 ft | 14 kts | 60° |
| 2026-05-07 19:54 | 35.55232 | 139.76880 | 24 ft | 19 kts | 60° |
| 2026-05-07 19:54 | 35.55300 | 139.77025 | 24 ft | 19 kts | 60° |
| 2026-05-07 19:54 | 35.55349 | 139.77168 | 27 ft | 17 kts | 107° |
| 2026-05-07 19:55 | 35.55290 | 139.77296 | 27 ft | 17 kts | 119° |
| 2026-05-07 19:55 | 35.55231 | 139.77435 | 27 ft | 19 kts | 95° |
| 2026-05-07 19:55 | 35.55271 | 139.77580 | 31 ft | 17 kts | 60° |
| 2026-05-07 19:55 | 35.55328 | 139.77704 | 34 ft | 16 kts | 60° |
| 2026-05-07 19:56 | 35.55380 | 139.77824 | 34 ft | 16 kts | 87° |
| 2026-05-07 19:56 | 35.55306 | 139.77916 | 33 ft | 16 kts | 150° |
| 2026-05-07 19:56 | 35.55293 | 139.78029 | 34 ft | 14 kts | 59° |
| 2026-05-07 19:56 | 35.55295 | 139.78093 | 34 ft | 7 kts | 148° |
| 2026-05-07 19:57 | 35.55247 | 139.78125 | 34 ft | 6 kts | 148° |
| 2026-05-07 19:57 | 35.55241 | 139.78131 | 34 ft | 0 kts | 149° |